DLSCOLUMBIA GORGE RGNL/THE DALLES MUNI
METARs for airports near DLS, sorted by distance:
N 0 nm 246' KDLS 230002Z 00000KT 10SM OVC010 05/01 A3056
W 51 nm 38' KTTD 222153Z 27008KT 10SM CLR 08/03 A3044
W 60 nm 30' KPDX 222353Z 29007KT 10SM FEW100 FEW250 09/03 A3043
W 62 nm 28' KVUO 222353Z 29007KT 10SM CLR 09/03 A3043
NE 62 nm 1098' KYKM 222353Z 00000KT 10SM CLR 05/M03 A3053
W 71 nm 199' KUAO 222353Z 03008KT 10SM CLR 10/03 A3041
W 71 nm 58' KSPB 222353Z 00000KT 10SM CLR 09/03 A3043
W 75 nm 207' KHIO 222353Z 30003KT 10SM CLR 09/04 A3041
NW 78 nm 20' KKLS 222356Z 36006KT 10SM CLR 09/04 A3044
E 81 nm 644' KHRI 222353Z 36004KT 5SM BR OVC004 02/01 A3056
S 81 nm 3081' KRDM 222356Z 33005KT 10SM CLR 12/M04 A3043
W 86 nm 162' KMMV 222353Z 35004KT 10SM CLR 10/04 A3041
NE 88 nm 394' KRLD 222355Z 32005KT 10SM CLR 03/01 A3059
SW 88 nm 213' KSLE 222356Z 33008KT 10SM CLR 09/04 A3040
N 89 nm 1763' KELN 222353Z 00000KT 10SM CLR 00/M05 A3051
S 91 nm 3459' KBDN 222355Z 35004KT 10SM CLR 12/M10 A3044
NE 93 nm 410' KPSC 222353Z 36007KT 10SM CLR 03/M01 A3058
E 97 nm 1496' KPDT 222353Z 31007KT 10SM CLR 04/02 A3051
NW 98 nm 177' KCLS 222355Z 03007KT 10SM CLR 07/04 A3048
TAFs for airports near DLS, sorted by distance:
N 0 nm 246' KDLS TAF
  AMD KDLS 222344Z 2300/2324 VRB03KT P6SM OVC009
  FM230600 10003KT 3SM BR OVC008
  FM230900 10003KT 1SM BR OVC005
  FM231700 VRB03KT 3SM BR OVC008
  FM232100 VRB03KT 6SM BR BKN015
W 51 nm 38' KTTD TAF KTTD 222331Z 2300/2324 27007KT P6SM SKC
  FM230100 08006KT P6SM SKC
  FM230500 10012G20KT P6SM SKC
  FM231200 10022G31KT P6SM SKC
  FM231800 10010KT P6SM FEW250
  AMD NOT SKED
W 60 nm 30' KPDX TAF KPDX 222331Z 2300/2324 32005KT P6SM SKC
  FM231400 00000KT 6SM BR FEW003
  FM232100 VRB03KT P6SM FEW250
NE 62 nm 1098' KYKM TAF KYKM 222320Z 2300/2324 VRB03KT P6SM FEW250
  FM230800 28003KT 4SM BR SCT006
  FM231400 29003KT 1SM BR BKN006
  FM232000 VRB03KT 6SM BR BKN025
W 71 nm 199' KUAO KUAO 222331Z 2300/2324 02005KT P6SM SKC
  FM230900 36002KT 5SM BR MIFG FEW007 BKN015
  FM231400 00000KT 1/2SM FG OVC002
  FM232000 00000KT P6SM FEW002
W 75 nm 207' KHIO TAF KHIO 222331Z 2300/2324 02004KT P6SM SKC
  FM230700 35002KT 1SM BR SCT002 BKN009
  FM231100 00000KT 1/2SM FG OVC002
  FM231800 VRB02KT 6SM BR FEW002
S 81 nm 3081' KRDM TAF KRDM 222320Z 2300/2324 VRB04KT P6SM FEW250
SW 88 nm 213' KSLE TAF KSLE 222331Z 2300/2324 36007KT P6SM SKC
  FM231100 35004KT 6SM BR MIFG BKN015
  TEMPO 2314/2318 1SM BR OVC002
  FM232000 VRB02KT P6SM SCT002
S 91 nm 3459' KBDN TAF KBDN 222320Z 2300/2324 VRB04KT P6SM FEW250
NE 93 nm 410' KPSC TAF KPSC 222320Z 2300/2324 36004KT P6SM SCT010
  FM230300 VRB03KT 4SM BR SCT002
  FM230600 VRB03KT 1/2SM FZFG BKN002
  FM231900 VRB02KT 4SM BR BKN005
  FM232100 35005KT 6SM BR BKN008
E 97 nm 1496' KPDT TAF KPDT 222320Z 2300/2324 VRB05KT P6SM SCT200
  FM230600 33004KT 6SM BR FEW006 SCT200
  TEMPO 2306/2308 1SM BR BKN006
  FM230800 VRB03KT 2SM BR SCT006 SCT200
  FM231000 VRB02KT 1/2SM FZFG VV002
  FM231900 31003KT 6SM BR SCT250

Shortcut to this page: http://wxbay.com.

Data may contain errors.